Time;durP1;ratioP1;P1;durP2;ratioP2;P2;SDS_P1;SDS_P2;PMS_P1;PMS_P2;Temp;Humidity;BMP_temperature;BMP_pressure;BME280_temperature;BME280_humidity;BME280_pressure;Samples;Min_cycle;Max_cycle;Signal;HPM_P1;HPM_P2
2023/04/11 00:00:50;;;;;;;0.25;0.25;;;7.20;99.90;;;;;;5076293;28;20044;-82
2023/04/11 00:03:16;;;;;;;0.47;0.40;;;7.20;99.90;;;;;;5076683;28;20057;-83
2023/04/11 00:05:42;;;;;;;23.20;0.88;;;7.10;99.90;;;;;;5075444;28;20102;-83
2023/04/11 00:08:08;;;;;;;0.00;0.00;;;7.20;99.90;;;;;;5073443;28;20045;-82
2023/04/11 00:10:33;;;;;;;0.00;0.00;;;6.90;99.90;;;;;;5071418;28;20051;-82
2023/04/11 00:12:59;;;;;;;0.00;0.00;;;6.80;99.90;;;;;;5070068;28;20135;-82
2023/04/11 00:15:25;;;;;;;0.00;0.00;;;6.80;99.90;;;;;;5070283;28;20044;-82
2023/04/11 00:17:54;;;;;;;1.98;0.65;;;6.80;99.90;;;;;;5070739;28;20123;-82
2023/04/11 00:20:21;;;;;;;0.00;0.00;;;6.80;99.90;;;;;;5070622;28;20044;-80
2023/04/11 00:22:47;;;;;;;7.32;1.38;;;6.80;99.90;;;;;;5052865;28;20104;-82
2023/04/11 00:25:12;;;;;;;0.00;0.00;;;6.70;99.90;;;;;;5070314;28;20055;-82
2023/04/11 00:27:38;;;;;;;2.88;0.47;;;6.60;99.90;;;;;;5071419;28;20040;-82
2023/04/11 00:30:05;;;;;;;0.00;0.00;;;6.50;99.90;;;;;;5069536;28;20052;-81
2023/04/11 00:32:31;;;;;;;0.25;0.15;;;6.40;99.90;;;;;;5069745;28;20605;-83
2023/04/11 00:34:56;;;;;;;0.00;0.00;;;6.30;99.90;;;;;;5071906;28;20119;-81
2023/04/11 00:37:22;;;;;;;0.45;0.20;;;6.20;99.90;;;;;;5090260;28;20111;-81
2023/04/11 00:39:54;;;;;;;0.52;0.52;;;6.10;99.90;;;;;;5091160;28;20056;-82
2023/04/11 00:42:20;;;;;;;0.00;0.00;;;6.00;99.90;;;;;;5090406;28;20052;-82
2023/04/11 00:44:46;;;;;;;0.47;0.20;;;6.00;99.90;;;;;;5088848;28;20028;-83
2023/04/11 00:47:12;;;;;;;0.00;0.00;;;5.90;99.90;;;;;;5085174;28;20044;-81
2023/04/11 00:49:39;;;;;;;0.00;0.00;;;5.90;99.90;;;;;;5072708;28;20079;-82
2023/04/11 00:52:07;;;;;;;0.03;0.03;;;5.80;99.90;;;;;;5072353;28;20090;-82
2023/04/11 00:54:33;;;;;;;0.30;0.28;;;5.80;99.90;;;;;;5072187;28;20044;-82
2023/04/11 00:57:00;;;;;;;0.05;0.05;;;5.80;99.90;;;;;;5072436;28;20098;-81
2023/04/11 00:59:31;;;;;;;0.00;0.00;;;5.90;99.90;;;;;;5074047;28;20044;-81
2023/04/11 01:02:00;;;;;;;0.00;0.00;;;6.00;99.90;;;;;;5074100;28;20104;-82
2023/04/11 01:04:28;;;;;;;0.10;0.10;;;6.10;99.90;;;;;;5073091;28;20086;-82
2023/04/11 01:06:58;;;;;;;3.70;1.27;;;6.10;99.90;;;;;;5073062;28;20131;-81
2023/04/11 01:09:26;;;;;;;0.00;0.00;;;6.10;99.90;;;;;;5073733;28;20056;-82
2023/04/11 01:11:52;;;;;;;0.00;0.00;;;6.00;99.90;;;;;;5077637;28;20040;-81
2023/04/11 01:14:19;;;;;;;0.10;0.10;;;6.00;99.90;;;;;;5076478;28;20036;-82
2023/04/11 01:16:49;;;;;;;0.40;0.32;;;6.00;99.90;;;;;;5077521;28;20059;-81
2023/04/11 01:19:22;;;;;;;0.20;0.20;;;6.10;99.90;;;;;;5076894;28;20044;-81
2023/04/11 01:21:49;;;;;;;0.00;0.00;;;6.00;99.90;;;;;;5077793;28;20096;-81
2023/04/11 01:24:15;;;;;;;0.00;0.00;;;6.00;99.90;;;;;;5078111;28;20059;-80
2023/04/11 01:26:41;;;;;;;0.00;0.00;;;6.00;99.90;;;;;;5077116;28;20489;-82
2023/04/11 01:29:07;;;;;;;2.53;1.35;;;6.00;99.90;;;;;;5077571;28;20036;-81
2023/04/11 01:31:32;;;;;;;0.20;0.20;;;6.00;99.90;;;;;;5077565;28;20051;-81
2023/04/11 01:34:00;;;;;;;0.20;0.15;;;5.90;99.90;;;;;;5078079;28;20045;-81
2023/04/11 01:36:27;;;;;;;0.38;0.20;;;5.80;99.90;;;;;;5077161;28;20079;-82
2023/04/11 01:38:53;;;;;;;0.10;0.10;;;6.40;99.90;;;;;;5074596;28;20490;-82
2023/04/11 01:41:23;;;;;;;0.00;0.00;;;5.80;99.90;;;;;;5075939;28;20083;-82
2023/04/11 01:43:49;;;;;;;0.00;0.00;;;5.70;99.90;;;;;;5076390;28;20048;-82
2023/04/11 01:46:15;;;;;;;1.45;1.23;;;5.70;99.90;;;;;;5077762;28;20462;-81
2023/04/11 01:48:44;;;;;;;1.20;0.60;;;5.70;99.90;;;;;;5078128;28;20044;-80
2023/04/11 01:51:10;;;;;;;0.43;0.43;;;5.80;99.90;;;;;;5078416;28;20048;-82
2023/04/11 01:53:36;;;;;;;2.55;1.45;;;5.90;99.90;;;;;;5079760;28;20037;-82
2023/04/11 01:56:04;;;;;;;1.20;0.40;;;5.90;99.90;;;;;;5078749;28;20053;-82
2023/04/11 01:58:30;;;;;;;0.00;0.00;;;6.00;99.90;;;;;;5076863;28;20052;-81
2023/04/11 02:00:55;;;;;;;0.00;0.00;;;6.10;99.90;;;;;;5077365;28;20044;-81
2023/04/11 02:03:21;;;;;;;0.00;0.00;;;6.20;99.90;;;;;;5059114;28;20040;-81
2023/04/11 02:05:47;;;;;;;0.10;0.10;;;6.30;99.90;;;;;;5076175;28;20518;-81
2023/04/11 02:08:13;;;;;;;0.00;0.00;;;6.40;99.90;;;;;;5078541;28;20047;-82
2023/04/11 02:10:39;;;;;;;0.25;0.25;;;6.40;99.90;;;;;;5078238;28;20048;-82
2023/04/11 02:13:04;;;;;;;0.43;0.22;;;6.40;99.90;;;;;;5078315;28;20056;-82
2023/04/11 02:15:30;;;;;;;0.00;0.00;;;6.50;99.90;;;;;;5078432;28;20062;-83
2023/04/11 02:17:56;;;;;;;0.10;0.05;;;6.50;99.90;;;;;;5078381;28;20064;-83
2023/04/11 02:20:22;;;;;;;0.05;0.05;;;6.60;99.90;;;;;;5077014;28;20037;-82
2023/04/11 02:22:48;;;;;;;6.03;2.35;;;6.60;99.90;;;;;;5078722;28;20044;-83
2023/04/11 02:25:13;;;;;;;0.28;0.28;;;6.60;99.90;;;;;;5078488;28;20055;-83
2023/04/11 02:27:39;;;;;;;0.00;0.00;;;6.60;99.90;;;;;;5079060;28;20418;-82
2023/04/11 02:30:06;;;;;;;0.22;0.22;;;6.60;99.90;;;;;;5075800;28;20048;-82
2023/04/11 02:32:36;;;;;;;0.00;0.00;;;6.60;99.90;;;;;;5077272;28;20049;-83
2023/04/11 02:35:07;;;;;;;0.00;0.00;;;6.60;99.90;;;;;;5077043;28;20048;-83
2023/04/11 02:37:33;;;;;;;0.17;0.17;;;6.70;99.90;;;;;;5076577;28;20401;-83
2023/04/11 02:40:00;;;;;;;1.17;0.75;;;7.10;99.90;;;;;;5076402;28;20044;-83
2023/04/11 02:42:26;;;;;;;0.00;0.00;;;6.60;99.90;;;;;;5076486;28;20055;-83
2023/04/11 02:44:54;;;;;;;0.00;0.00;;;7.40;99.90;;;;;;5075434;28;20051;-82
2023/04/11 02:47:20;;;;;;;0.95;0.90;;;6.70;99.90;;;;;;5058100;28;20044;-83
2023/04/11 02:49:46;;;;;;;0.52;0.45;;;6.80;99.90;;;;;;5076197;28;20047;-84
2023/04/11 02:52:12;;;;;;;0.43;0.35;;;6.80;99.90;;;;;;5075023;28;20044;-84
2023/04/11 02:54:37;;;;;;;1.30;0.65;;;6.80;99.90;;;;;;5075865;28;20052;-82
2023/04/11 02:57:03;;;;;;;0.95;0.20;;;6.80;99.90;;;;;;5076694;28;20040;-83
2023/04/11 02:59:29;;;;;;;0.00;0.00;;;6.80;99.90;;;;;;5077632;28;20049;-82
2023/04/11 03:01:59;;;;;;;0.57;0.57;;;6.70;99.90;;;;;;5082072;28;20043;-82
2023/04/11 03:04:25;;;;;;;0.00;0.00;;;6.70;99.90;;;;;;5093190;28;20040;-82
2023/04/11 03:06:51;;;;;;;0.00;0.00;;;6.60;99.90;;;;;;5092648;28;20028;-82
2023/04/11 03:09:17;;;;;;;0.00;0.00;;;6.60;99.90;;;;;;5092886;28;20616;-82
2023/04/11 03:11:42;;;;;;;0.00;0.00;;;6.60;99.90;;;;;;5092330;28;20037;-81
2023/04/11 03:14:08;;;;;;;0.00;0.00;;;6.60;99.90;;;;;;5088702;28;20033;-82
2023/04/11 03:16:34;;;;;;;0.00;0.00;;;6.60;99.90;;;;;;5079875;28;20096;-83
2023/04/11 03:19:00;;;;;;;0.38;0.38;;;6.60;99.90;;;;;;5078887;28;20052;-82
2023/04/11 03:21:26;;;;;;;0.00;0.00;;;6.50;99.90;;;;;;5080117;28;20902;-83
2023/04/11 03:23:52;;;;;;;0.05;0.03;;;6.50;99.90;;;;;;5079010;28;20052;-82
2023/04/11 03:26:18;;;;;;;0.00;0.00;;;6.50;99.90;;;;;;5078623;28;20063;-84
2023/04/11 03:28:44;;;;;;;1.00;0.70;;;6.40;99.90;;;;;;5079409;28;20052;-84
2023/04/11 03:31:11;;;;;;;1.55;0.52;;;7.20;99.90;;;;;;5079190;28;20040;-83
2023/04/11 03:33:37;;;;;;;0.57;0.52;;;6.30;99.90;;;;;;5076966;28;20045;-83
2023/04/11 03:36:04;;;;;;;0.00;0.00;;;6.30;99.90;;;;;;5076880;28;20052;-84
2023/04/11 03:38:30;;;;;;;0.00;0.00;;;6.30;99.90;;;;;;5077481;28;20072;-82
2023/04/11 03:40:56;;;;;;;0.00;0.00;;;6.40;99.90;;;;;;5078916;28;20394;-82
2023/04/11 03:43:21;;;;;;;0.00;0.00;;;6.50;99.90;;;;;;5060567;28;20072;-82
2023/04/11 03:45:47;;;;;;;0.00;0.00;;;6.50;99.90;;;;;;5077830;28;20213;-82
2023/04/11 03:48:13;;;;;;;0.00;0.00;;;6.60;99.90;;;;;;5077649;28;20055;-83
2023/04/11 03:50:39;;;;;;;0.00;0.00;;;6.60;99.90;;;;;;5077837;28;20044;-83
2023/04/11 03:53:06;;;;;;;2.05;0.88;;;6.60;99.90;;;;;;5077508;28;20072;-81
2023/04/11 03:55:34;;;;;;;0.00;0.00;;;6.70;99.90;;;;;;5077602;28;20127;-83
2023/04/11 03:58:00;;;;;;;0.63;0.63;;;6.70;99.90;;;;;;5076142;28;20041;-82
2023/04/11 04:00:26;;;;;;;0.00;0.00;;;6.50;99.90;;;;;;5077551;28;20058;-82
2023/04/11 04:02:51;;;;;;;0.00;0.00;;;6.70;99.90;;;;;;5077595;28;20072;-83
2023/04/11 04:05:17;;;;;;;0.00;0.00;;;6.70;99.90;;;;;;5078054;28;20410;-83
2023/04/11 04:07:43;;;;;;;0.00;0.00;;;6.70;99.90;;;;;;5078337;28;20068;-82
2023/04/11 04:10:09;;;;;;;6.07;0.38;;;6.70;99.90;;;;;;5077329;28;20040;-84
2023/04/11 04:12:34;;;;;;;0.00;0.00;;;6.70;99.90;;;;;;5077922;28;20047;-83
2023/04/11 04:15:00;;;;;;;0.00;0.00;;;6.70;99.90;;;;;;5077007;28;20624;-83
2023/04/11 04:17:26;;;;;;;0.17;0.17;;;6.80;99.90;;;;;;5076926;28;20056;-84
2023/04/11 04:19:55;;;;;;;0.28;0.25;;;6.80;99.90;;;;;;5075663;28;20094;-85
2023/04/11 04:22:21;;;;;;;0.00;0.00;;;6.80;99.90;;;;;;5074709;28;20054;-84
2023/04/11 04:24:46;;;;;;;0.00;0.00;;;7.60;99.90;;;;;;5074086;28;20048;-85
2023/04/11 04:27:12;;;;;;;0.00;0.00;;;6.80;99.90;;;;;;5073389;28;20399;-84
2023/04/11 04:29:47;;;;;;;0.35;0.20;;;6.90;99.90;;;;;;5073924;28;20044;-84
2023/04/11 04:32:19;;;;;;;0.00;0.00;;;6.90;99.90;;;;;;5073640;28;20044;-83
2023/04/11 04:34:48;;;;;;;0.00;0.00;;;6.90;99.90;;;;;;5074870;28;20083;-85
2023/04/11 04:37:20;;;;;;;0.00;0.00;;;6.90;99.90;;;;;;5073871;28;20458;-85
2023/04/11 04:39:49;;;;;;;0.55;0.45;;;6.90;99.90;;;;;;5074509;28;20063;-85
2023/04/11 04:42:27;;;;;;;0.00;0.00;;;6.90;99.90;;;;;;5074220;28;20468;-84
2023/04/11 04:44:54;;;;;;;0.00;0.00;;;6.90;99.90;;;;;;5076266;28;20059;-85
2023/04/11 04:47:30;;;;;;;0.05;0.05;;;7.80;99.90;;;;;;5079406;28;20036;-84
2023/04/11 04:49:56;;;;;;;0.10;0.10;;;7.00;99.90;;;;;;5078218;28;20090;-84
2023/04/11 04:52:24;;;;;;;0.00;0.00;;;7.00;99.90;;;;;;5075469;28;20386;-83
2023/04/11 04:54:50;;;;;;;0.17;0.17;;;7.00;99.90;;;;;;5074251;28;20091;-83
2023/04/11 04:57:16;;;;;;;0.00;0.00;;;7.00;99.90;;;;;;5075717;28;20128;-85
2023/04/11 04:59:48;;;;;;;0.00;0.00;;;7.00;99.90;;;;;;5078486;28;20123;-83
2023/04/11 05:02:15;;;;;;;0.00;0.00;;;7.00;99.90;;;;;;5075837;28;20044;-84
2023/04/11 05:04:43;;;;;;;0.00;0.00;;;7.00;99.90;;;;;;5076195;28;20091;-84
2023/04/11 05:07:09;;;;;;;0.00;0.00;;;7.00;99.90;;;;;;5077984;28;20040;-84
2023/04/11 05:09:35;;;;;;;0.00;0.00;;;7.00;99.90;;;;;;5077131;28;20059;-83
2023/04/11 05:12:04;;;;;;;0.60;0.57;;;7.00;99.90;;;;;;5075070;28;20056;-83
2023/04/11 05:14:30;;;;;;;2.08;1.00;;;6.50;99.90;;;;;;5077546;28;20056;-84
2023/04/11 05:16:56;;;;;;;0.00;0.00;;;7.70;99.90;;;;;;5075343;28;20075;-84
2023/04/11 05:19:21;;;;;;;0.00;0.00;;;6.90;99.90;;;;;;5075487;28;20040;-84
2023/04/11 05:21:47;;;;;;;3.63;0.52;;;7.20;99.90;;;;;;5074752;28;20264;-84
2023/04/11 05:24:13;;;;;;;0.47;0.47;;;6.90;99.90;;;;;;5074122;28;20490;-83
2023/04/11 05:26:39;;;;;;;0.10;0.10;;;6.90;99.90;;;;;;5055136;28;20052;-82
2023/04/11 05:29:05;;;;;;;0.00;0.00;;;6.90;99.90;;;;;;5072066;28;20076;-84
2023/04/11 05:31:33;;;;;;;0.00;0.00;;;6.90;99.90;;;;;;5079845;28;20054;-83
2023/04/11 05:33:59;;;;;;;0.05;0.05;;;6.90;99.90;;;;;;5086777;28;20104;-83
2023/04/11 05:36:25;;;;;;;0.00;0.00;;;7.00;99.90;;;;;;5072258;28;20071;-83
2023/04/11 05:38:51;;;;;;;0.00;0.00;;;7.00;99.90;;;;;;5068134;28;20068;-84
2023/04/11 05:41:16;;;;;;;0.63;0.55;;;7.00;99.90;;;;;;5068475;28;20457;-84
2023/04/11 05:43:42;;;;;;;0.10;0.10;;;7.00;99.90;;;;;;5068887;28;20112;-84
2023/04/11 05:46:08;;;;;;;0.10;0.10;;;7.00;99.90;;;;;;5066769;28;20041;-84
2023/04/11 05:48:34;;;;;;;0.57;0.57;;;7.00;99.90;;;;;;5049757;28;20088;-84
2023/04/11 05:51:00;;;;;;;0.20;0.20;;;7.00;99.90;;;;;;5057263;28;20041;-84
2023/04/11 05:53:26;;;;;;;5.63;0.47;;;7.10;99.90;;;;;;5063549;28;20059;-84
2023/04/11 05:55:51;;;;;;;1.02;0.63;;;7.00;99.90;;;;;;5062887;28;20045;-81
2023/04/11 05:58:17;;;;;;;0.17;0.17;;;7.00;99.90;;;;;;5061146;28;20052;-82
2023/04/11 06:00:44;;;;;;;0.00;0.00;;;7.00;99.90;;;;;;5060035;28;20037;-82
2023/04/11 06:03:10;;;;;;;0.00;0.00;;;7.00;99.90;;;;;;5054867;28;20061;-83
2023/04/11 06:05:36;;;;;;;1.15;1.08;;;7.00;99.90;;;;;;5053609;28;20110;-83
2023/04/11 06:08:04;;;;;;;0.05;0.05;;;7.10;99.90;;;;;;5052251;28;20044;-83
2023/04/11 06:10:32;;;;;;;0.68;0.52;;;7.20;99.90;;;;;;5053066;28;20041;-83
2023/04/11 06:12:58;;;;;;;0.00;0.00;;;7.20;99.90;;;;;;5050961;28;20405;-84
2023/04/11 06:15:25;;;;;;;0.00;0.00;;;7.20;99.90;;;;;;5052785;28;20054;-83
2023/04/11 06:17:51;;;;;;;0.03;0.00;;;7.30;99.90;;;;;;5034885;28;20052;-83
2023/04/11 06:20:17;;;;;;;0.63;0.38;;;7.30;99.90;;;;;;5063873;28;20064;-83
2023/04/11 06:22:45;;;;;;;0.10;0.10;;;7.20;99.90;;;;;;5072289;28;20082;-84
2023/04/11 06:25:13;;;;;;;0.00;0.00;;;7.30;99.90;;;;;;5068753;28;20052;-82
2023/04/11 06:27:39;;;;;;;0.10;0.08;;;7.30;99.90;;;;;;5070180;28;20040;-83
2023/04/11 06:30:05;;;;;;;0.13;0.13;;;7.40;99.90;;;;;;5070689;28;20066;-83
2023/04/11 06:32:34;;;;;;;1.00;0.60;;;7.40;99.90;;;;;;5070411;28;20048;-84
2023/04/11 06:35:00;;;;;;;0.00;0.00;;;7.30;99.90;;;;;;5070369;28;20037;-83
2023/04/11 06:37:26;;;;;;;0.13;0.13;;;7.50;99.90;;;;;;5070499;28;20048;-83
2023/04/11 06:39:51;;;;;;;0.43;0.43;;;7.50;99.90;;;;;;5072574;28;20067;-82
2023/04/11 06:42:17;;;;;;;0.00;0.00;;;7.50;99.90;;;;;;5069998;28;20080;-83
2023/04/11 06:44:44;;;;;;;0.45;0.38;;;7.60;99.90;;;;;;5071747;28;20051;-84
2023/04/11 06:47:10;;;;;;;0.30;0.30;;;7.60;99.90;;;;;;5070902;28;20053;-84
2023/04/11 06:49:35;;;;;;;0.88;0.57;;;7.60;99.90;;;;;;5071216;28;20040;-82
2023/04/11 06:52:03;;;;;;;1.45;0.75;;;8.30;99.90;;;;;;5072877;28;20098;-83
2023/04/11 06:54:29;;;;;;;0.05;0.05;;;7.70;99.90;;;;;;5072646;28;20124;-83
2023/04/11 06:56:56;;;;;;;0.13;0.13;;;7.60;99.90;;;;;;5072701;28;20082;-82
2023/04/11 06:59:22;;;;;;;0.10;0.05;;;7.70;99.90;;;;;;5070964;28;20087;-84
2023/04/11 07:01:48;;;;;;;0.00;0.00;;;7.80;99.90;;;;;;5073106;28;20333;-83
2023/04/11 07:04:15;;;;;;;0.28;0.28;;;7.90;99.90;;;;;;5072036;28;20563;-84
2023/04/11 07:06:41;;;;;;;0.00;0.00;;;8.00;99.90;;;;;;5066984;28;20045;-84
2023/04/11 07:09:08;;;;;;;0.00;0.00;;;8.00;99.90;;;;;;5067060;28;20052;-84
2023/04/11 07:11:34;;;;;;;0.25;0.25;;;7.80;99.90;;;;;;5067431;28;20265;-84
2023/04/11 07:14:01;;;;;;;0.55;0.55;;;7.60;99.90;;;;;;5066767;28;20048;-84
2023/04/11 07:16:27;;;;;;;0.20;0.20;;;7.50;99.90;;;;;;5069778;28;20147;-84
2023/04/11 07:18:54;;;;;;;0.00;0.00;;;7.30;99.90;;;;;;5070354;28;20413;-84
2023/04/11 07:21:20;;;;;;;0.00;0.00;;;7.10;99.90;;;;;;5071315;28;20051;-84
2023/04/11 07:23:46;;;;;;;0.00;0.00;;;8.50;99.90;;;;;;5068537;28;20040;-84
2023/04/11 07:26:13;;;;;;;0.00;0.00;;;7.50;99.90;;;;;;5069412;28;20099;-84
2023/04/11 07:28:40;;;;;;;0.10;0.10;;;8.00;99.90;;;;;;5067192;28;20502;-84
2023/04/11 07:31:09;;;;;;;1.02;0.70;;;7.90;99.90;;;;;;5067735;28;20040;-84
2023/04/11 07:33:38;;;;;;;1.20;0.68;;;8.00;99.90;;;;;;5067696;28;20055;-84
2023/04/11 07:36:05;;;;;;;0.32;0.32;;;8.10;99.90;;;;;;5067900;28;20938;-84
2023/04/11 07:38:33;;;;;;;1.98;0.73;;;8.10;1.00;;;;;;5066525;28;20530;-83
2023/04/11 07:41:05;;;;;;;0.00;0.00;;;8.20;1.00;;;;;;5068395;28;20459;-84
2023/04/11 07:43:30;;;;;;;5.28;1.70;;;8.40;9.80;;;;;;5066265;28;20067;-84
2023/04/11 07:45:57;;;;;;;0.00;0.00;;;9.10;1.00;;;;;;5067849;28;20556;-83
2023/04/11 07:48:25;;;;;;;0.25;0.25;;;8.50;99.90;;;;;;5068557;28;20068;-84
2023/04/11 07:50:52;;;;;;;2.05;0.52;;;9.20;1.00;;;;;;5090200;28;20123;-84
2023/04/11 07:53:17;;;;;;;0.00;0.00;;;8.50;99.90;;;;;;5090471;28;20047;-84
2023/04/11 07:55:43;;;;;;;0.00;0.00;;;8.60;34.50;;;;;;5090662;28;20036;-84
2023/04/11 07:58:09;;;;;;;0.57;0.57;;;8.80;1.00;;;;;;5090628;28;20028;-83
2023/04/11 08:00:35;;;;;;;0.32;0.32;;;9.30;99.90;;;;;;5089197;28;20043;-82
2023/04/11 08:03:09;;;;;;;0.13;0.13;;;9.90;99.90;;;;;;5073521;28;21009;-83
2023/04/11 08:05:36;;;;;;;6.68;1.92;;;9.90;1.00;;;;;;5069421;28;20127;-83
2023/04/11 08:08:05;;;;;;;0.00;0.00;;;9.80;1.00;;;;;;5067693;28;20048;-83
2023/04/11 08:10:31;;;;;;;0.00;0.00;;;9.50;99.90;;;;;;5067587;28;20490;-83
2023/04/11 08:12:57;;;;;;;0.20;0.20;;;9.50;96.40;;;;;;5069570;28;20070;-84
2023/04/11 08:15:23;;;;;;;0.00;0.00;;;9.50;1.00;;;;;;5068761;28;20110;-83
2023/04/11 08:17:50;;;;;;;0.00;0.00;;;9.80;1.00;;;;;;5069880;28;20048;-83
2023/04/11 08:20:16;;;;;;;0.00;0.00;;;10.30;1.00;;;;;;5069515;28;20138;-83
2023/04/11 08:22:47;;;;;;;1.17;0.88;;;10.80;99.90;;;;;;5068112;28;20422;-84
2023/04/11 08:25:15;;;;;;;0.20;0.20;;;11.20;1.00;;;;;;5065947;28;20059;-82
2023/04/11 08:27:43;;;;;;;0.35;0.35;;;11.00;17.40;;;;;;5067073;28;20356;-83
2023/04/11 08:30:08;;;;;;;1.20;1.13;;;11.40;1.00;;;;;;5065776;28;20109;-82
2023/04/11 08:32:34;;;;;;;0.00;0.00;;;12.00;1.00;;;;;;5067455;28;20040;-84
2023/04/11 08:35:03;;;;;;;1.00;0.55;;;12.60;1.00;;;;;;5066709;28;20553;-83
2023/04/11 08:37:29;;;;;;;0.10;0.10;;;12.80;99.90;;;;;;5066252;28;20868;-84
2023/04/11 08:39:55;;;;;;;4.50;1.08;;;12.50;99.90;;;;;;5066964;28;20041;-84
2023/04/11 08:42:25;;;;;;;0.65;0.35;;;11.80;99.90;;;;;;5066379;28;20072;-83
2023/04/11 08:44:56;;;;;;;3.25;1.45;;;11.90;99.90;;;;;;5067226;28;20066;-83
2023/04/11 08:47:22;;;;;;;0.03;0.03;;;12.00;99.90;;;;;;5067833;28;20045;-85
2023/04/11 08:49:49;;;;;;;0.05;0.05;;;12.60;99.90;;;;;;5065523;28;20414;-83
2023/04/11 08:52:16;;;;;;;1.25;0.65;;;13.10;99.90;;;;;;5067362;28;20036;-84
2023/04/11 08:54:41;;;;;;;0.00;0.00;;;13.40;99.90;;;;;;5065978;28;20079;-84
2023/04/11 08:57:07;;;;;;;6.55;0.85;;;13.60;99.90;;;;;;5065904;28;20506;-84
2023/04/11 08:59:33;;;;;;;0.57;0.50;;;14.10;99.90;;;;;;5065483;28;20056;-84
2023/04/11 09:02:10;;;;;;;0.65;0.47;;;14.50;99.90;;;;;;5066039;28;20479;-83
2023/04/11 09:04:40;;;;;;;0.00;0.00;;;14.70;99.90;;;;;;5066053;28;20104;-84
2023/04/11 09:07:06;;;;;;;0.00;0.00;;;14.70;99.90;;;;;;5065844;28;20045;-83
2023/04/11 09:09:38;;;;;;;0.08;0.08;;;14.90;99.90;;;;;;5065059;28;20498;-84
2023/04/11 09:12:04;;;;;;;0.00;0.00;;;15.00;99.90;;;;;;5064793;28;20459;-84
2023/04/11 09:14:31;;;;;;;0.60;0.60;;;14.70;99.90;;;;;;5065420;28;20063;-84
2023/04/11 09:17:05;;;;;;;2.17;1.10;;;14.50;99.90;;;;;;5064877;28;20060;-84
2023/04/11 09:19:32;;;;;;;0.05;0.05;;;14.40;99.90;;;;;;5064554;28;20045;-84
2023/04/11 09:22:05;;;;;;;0.35;0.32;;;13.40;99.90;;;;;;5062666;28;20055;-84
2023/04/11 09:24:31;;;;;;;0.50;0.30;;;11.80;99.90;;;;;;5064137;28;20052;-84
2023/04/11 09:27:15;;;;;;;3.00;0.55;;;10.20;99.90;;;;;;5064910;28;20090;-83
2023/04/11 09:29:46;;;;;;;0.00;0.00;;;9.40;99.90;;;;;;5062713;28;20063;-83
2023/04/11 09:32:27;;;;;;;0.70;0.70;;;9.10;99.90;;;;;;5064248;28;20061;-83
2023/04/11 09:35:17;;;;;;;0.00;0.00;;;8.70;1.00;;;;;;5067666;28;20505;-84
2023/04/11 09:37:47;;;;;;;0.00;0.00;;;8.40;90.60;;;;;;5049345;28;20056;-84
2023/04/11 09:40:15;;;;;;;0.00;0.00;;;8.20;99.90;;;;;;5065883;28;20529;-84
2023/04/11 09:42:41;;;;;;;0.70;0.70;;;8.00;1.00;;;;;;5066243;28;20119;-84
2023/04/11 09:45:21;;;;;;;0.00;0.00;;;8.50;12.00;;;;;;5068090;28;20486;-84
2023/04/11 09:47:48;;;;;;;0.00;0.00;;;8.90;43.00;;;;;;5067800;28;20055;-84
2023/04/11 09:50:15;;;;;;;0.32;0.32;;;9.60;27.40;;;;;;5068267;28;20080;-83
2023/04/11 09:52:42;;;;;;;0.10;0.10;;;10.50;99.90;;;;;;5068276;28;20102;-83
2023/04/11 09:55:10;;;;;;;0.00;0.00;;;12.00;99.90;;;;;;5067899;28;20471;-83
2023/04/11 09:57:44;;;;;;;0.17;0.17;;;11.60;1.00;;;;;;5067187;28;20049;-84
2023/04/11 10:00:15;;;;;;;0.08;0.08;;;11.70;1.00;;;;;;5067914;28;20045;-83
2023/04/11 10:02:42;;;;;;;0.00;0.00;;;11.80;1.00;;;;;;5068533;28;20040;-84
2023/04/11 10:05:09;;;;;;;0.08;0.08;;;12.10;1.00;;;;;;5067601;28;20083;-84
2023/04/11 10:08:02;;;;;;;0.00;0.00;;;12.40;1.00;;;;;;5073117;28;20055;-84
2023/04/11 10:10:28;;;;;;;0.00;0.00;;;11.90;99.90;;;;;;5092588;28;20056;-83
2023/04/11 10:12:53;;;;;;;10.77;1.05;;;11.50;99.90;;;;;;5092041;28;20101;-84
2023/04/11 10:15:21;;;;;;;1.10;0.47;;;11.40;99.90;;;;;;5091504;28;20114;-83
2023/04/11 10:18:10;;;;;;;2.72;0.55;;;11.60;99.90;;;;;;5091852;28;20048;-83
2023/04/11 10:20:49;;;;;;;0.40;0.40;;;11.80;1.00;;;;;;5093261;28;20070;-85
2023/04/11 10:23:15;;;;;;;0.10;0.10;;;12.00;99.90;;;;;;5092116;28;20084;-84
2023/04/11 10:25:54;;;;;;;0.20;0.20;;;12.20;99.90;;;;;;5091503;28;20041;-84
2023/04/11 10:28:34;;;;;;;1.02;0.93;;;12.40;99.90;;;;;;5069094;28;20127;-83
2023/04/11 10:31:08;;;;;;;0.35;0.35;;;12.60;99.90;;;;;;5068899;28;20048;-84
2023/04/11 10:33:36;;;;;;;0.17;0.15;;;12.50;99.90;;;;;;5068250;28;20036;-84
2023/04/11 10:36:05;;;;;;;2.05;0.40;;;12.40;99.90;;;;;;5067329;28;20098;-84
2023/04/11 10:38:40;;;;;;;0.13;0.13;;;12.50;99.90;;;;;;5066966;28;20094;-84
2023/04/11 10:41:27;;;;;;;0.00;0.00;;;12.90;99.90;;;;;;5064596;28;20048;-85
2023/04/11 10:44:18;;;;;;;0.00;0.00;;;13.00;99.90;;;;;;5065658;28;20045;-83
2023/04/11 10:46:49;;;;;;;0.57;0.38;;;12.00;99.90;;;;;;5066906;28;20049;-85
2023/04/11 10:49:35;;;;;;;0.00;0.00;;;9.80;78.10;;;;;;5048874;28;20056;-85
2023/04/11 10:52:22;;;;;;;0.00;0.00;;;8.20;1.00;;;;;;5067996;28;20056;-85
2023/04/11 10:54:52;;;;;;;0.00;0.00;;;7.40;99.90;;;;;;5067206;28;20076;-85
2023/04/11 10:57:19;;;;;;;0.00;0.00;;;7.30;99.90;;;;;;5048861;28;20106;-85
2023/04/11 10:59:55;;;;;;;0.00;0.00;;;7.00;99.90;;;;;;5065773;28;20055;-86
2023/04/11 11:02:23;;;;;;;;;;;6.50;99.90;;;;;;5067600;28;20040;-85
2023/04/11 11:04:49;;;;;;;0.00;0.00;;;6.40;99.90;;;;;;5066732;28;19982;-85
2023/04/11 11:07:16;;;;;;;0.00;0.00;;;6.60;99.90;;;;;;5066256;28;20048;-85
2023/04/11 11:09:48;;;;;;;0.52;0.47;;;6.90;99.90;;;;;;5064865;28;20040;-84
2023/04/11 11:12:15;;;;;;;1.52;0.57;;;7.00;99.90;;;;;;5065338;28;20123;-84
2023/04/11 11:14:45;;;;;;;0.10;0.10;;;6.90;99.90;;;;;;5066952;28;20048;-84
2023/04/11 11:17:12;;;;;;;0.20;0.20;;;6.80;99.90;;;;;;5066747;28;20060;-85
2023/04/11 11:19:51;;;;;;;0.55;0.55;;;6.80;99.90;;;;;;5065948;28;20048;-85
2023/04/11 11:22:24;;;;;;;0.47;0.47;;;6.50;99.90;;;;;;5065577;28;20064;-85
2023/04/11 11:24:50;;;;;;;0.28;0.28;;;6.30;99.90;;;;;;5067116;28;20045;-84
2023/04/11 11:27:23;;;;;;;0.00;0.00;;;6.10;99.90;;;;;;5064453;28;20045;-84
2023/04/11 11:29:49;;;;;;;0.00;0.00;;;6.10;99.90;;;;;;5066221;28;20406;-84
2023/04/11 11:32:25;;;;;;;11.20;1.98;;;6.00;99.90;;;;;;5064941;28;20078;-84
2023/04/11 11:34:54;;;;;;;1.10;1.00;;;6.00;99.90;;;;;;5072374;28;20485;-85
2023/04/11 11:37:20;;;;;;;0.00;0.00;;;6.00;99.90;;;;;;5072871;28;20123;-85
2023/04/11 11:39:47;;;;;;;0.00;0.00;;;6.00;99.90;;;;;;5071426;28;20088;-85
2023/04/11 11:42:13;;;;;;;0.00;0.00;;;5.10;99.90;;;;;;5071844;28;20465;-85
2023/04/11 11:44:39;;;;;;;0.00;0.00;;;6.60;99.90;;;;;;5073239;28;20052;-84
2023/04/11 11:47:13;;;;;;;0.00;0.00;;;7.30;99.90;;;;;;5070387;28;20056;-86
2023/04/11 11:49:43;;;;;;;0.00;0.00;;;7.80;99.90;;;;;;5072801;28;20068;-86
2023/04/11 11:52:10;;;;;;;0.13;0.13;;;7.80;99.90;;;;;;5073600;28;20056;-86
2023/04/11 11:54:46;;;;;;;0.32;0.32;;;7.60;99.90;;;;;;5070366;28;20162;-87
2023/04/11 11:57:21;;;;;;;0.73;0.55;;;7.40;99.90;;;;;;5070225;28;20426;-85
2023/04/11 11:59:57;;;;;;;1.13;0.77;;;7.30;99.90;;;;;;5070714;28;20447;-86
2023/04/11 12:02:26;;;;;;;1.77;0.95;;;6.90;99.90;;;;;;5072863;28;20052;-84
2023/04/11 12:04:58;;;;;;;0.00;0.00;;;6.60;99.90;;;;;;5072502;28;20398;-83
2023/04/11 12:07:24;;;;;;;0.00;0.00;;;6.60;99.90;;;;;;5081437;28;20044;-84
2023/04/11 12:10:01;;;;;;;0.63;0.55;;;6.70;99.90;;;;;;5086148;28;20052;-84
2023/04/11 12:12:43;;;;;;;0.00;0.00;;;7.10;99.90;;;;;;5085883;28;20599;-85
2023/04/11 12:15:13;;;;;;;0.13;0.13;;;9.30;99.90;;;;;;5086856;28;20107;-86
2023/04/11 12:17:39;;;;;;;0.00;0.00;;;8.90;99.90;;;;;;5086121;28;20065;-85
2023/04/11 12:20:09;;;;;;;0.00;0.00;;;8.90;99.90;;;;;;5087930;28;20040;-85
2023/04/11 12:22:38;;;;;;;0.15;0.10;;;8.70;99.90;;;;;;5087706;28;20044;-85
2023/04/11 12:25:06;;;;;;;0.00;0.00;;;8.60;99.90;;;;;;5085713;28;20100;-84
2023/04/11 12:27:39;;;;;;;4.75;0.28;;;8.50;99.90;;;;;;5085552;28;20407;-85
2023/04/11 12:30:05;;;;;;;0.63;0.15;;;8.50;44.90;;;;;;5085452;28;20062;-84
2023/04/11 12:32:32;;;;;;;5.65;0.82;;;9.20;99.90;;;;;;5085281;28;20514;-84
2023/04/11 12:34:59;;;;;;;0.57;0.10;;;10.30;99.90;;;;;;5085244;28;20052;-84
2023/04/11 12:37:25;;;;;;;0.10;0.10;;;11.20;99.90;;;;;;5087435;28;20028;-84
2023/04/11 12:39:51;;;;;;;0.00;0.00;;;12.50;99.90;;;;;;5090297;28;20047;-85
2023/04/11 12:42:17;;;;;;;0.40;0.35;;;11.60;99.90;;;;;;5091421;28;20024;-84
2023/04/11 12:44:43;;;;;;;0.20;0.20;;;11.40;89.00;;;;;;5091857;28;20084;-84
2023/04/11 12:47:09;;;;;;;0.08;0.08;;;11.50;99.90;;;;;;5087928;28;20104;-84
2023/04/11 12:49:35;;;;;;;0.20;0.20;;;11.70;99.90;;;;;;5075137;28;20044;-86
2023/04/11 12:52:01;;;;;;;0.25;0.05;;;10.30;99.90;;;;;;5070714;28;20049;-84
2023/04/11 12:54:27;;;;;;;1.20;0.45;;;11.20;8.20;;;;;;5068812;28;20145;-85
2023/04/11 12:56:53;;;;;;;0.45;0.38;;;10.80;1.00;;;;;;5070736;28;20052;-85
2023/04/11 12:59:20;;;;;;;0.00;0.00;;;11.70;1.00;;;;;;5070306;28;20432;-84